Time;durP1;ratioP1;P1;durP2;ratioP2;P2;SDS_P1;SDS_P2;PMS_P1;PMS_P2;Temp;Humidity;BMP_temperature;BMP_pressure;BME280_temperature;BME280_humidity;BME280_pressure;Samples;Min_cycle;Max_cycle;Signal;HPM_P1;HPM_P2
2022/04/02 00:01:21;;;;;;;;;;;;;;;1.60;73.52;101562.06;5055180;28;19919;-35
2022/04/02 00:03:46;;;;;;;;;;;;;;;1.60;73.16;101562.06;5054282;28;19920;-35
2022/04/02 00:06:12;;;;;;;;;;;;;;;1.59;73.17;101563.06;5054753;28;19912;-35
2022/04/02 00:08:37;;;;;;;;;;;;;;;1.60;72.80;101555.91;5054699;28;20380;-35
2022/04/02 00:11:02;;;;;;;;;;;;;;;1.61;72.60;101557.56;5054231;28;19913;-35
2022/04/02 00:13:30;;;;;;;;;;;;;;;1.61;72.67;101561.09;5054420;28;19960;-35
2022/04/02 00:15:57;;;;;;;;;;;;;;;1.59;72.73;101555.06;5054366;28;20332;-35
2022/04/02 00:18:22;;;;;;;;;;;;;;;1.56;72.13;101566.03;5054637;28;19938;-34
2022/04/02 00:20:47;;;;;;;;;;;;;;;1.55;71.90;101564.38;5054383;28;20433;-35
2022/04/02 00:25:56;;;;;;;;;;;;;;;1.51;72.08;101565.66;5054509;28;19990;-35
2022/04/02 00:28:21;;;;;;;;;;;;;;;1.52;71.41;101560.19;5053814;28;20030;-35
2022/04/02 00:30:47;;;;;;;;;;;;;;;1.48;70.77;101571.31;5053912;28;20011;-35
2022/04/02 00:33:12;;;;;;;;;;;;;;;1.47;70.81;101569.66;5053761;28;20003;-35
2022/04/02 00:35:38;;;;;;;;;;;;;;;1.48;71.40;101565.97;5054047;28;20318;-35
2022/04/02 00:38:03;;;;;;;;;;;;;;;1.51;71.47;101563.00;5053681;28;20315;-35
2022/04/02 00:40:29;;;;;;;;;;;;;;;1.52;72.02;101565.53;5053941;28;19920;-35
2022/04/02 00:42:54;;;;;;;;;;;;;;;1.54;72.10;101566.19;5053533;28;19935;-35
2022/04/02 00:45:19;;;;;;;;;;;;;;;1.53;70.95;101556.53;5053613;28;19913;-35
2022/04/02 00:47:45;;;;;;;;;;;;;;;1.51;70.76;101555.84;5053745;28;20353;-35
2022/04/02 00:50:11;;;;;;;;;;;;;;;1.53;71.24;101558.38;5054098;28;20007;-35
2022/04/02 00:52:36;;;;;;;;;;;;;;;1.45;70.27;101555.63;5053241;28;19936;-35
2022/04/02 00:55:01;;;;;;;;;;;;;;;1.45;70.88;101558.28;5053323;28;19913;-35
2022/04/02 00:57:29;;;;;;;;;;;;;;;1.45;71.65;101556.44;5053302;28;19916;-35
2022/04/02 00:59:54;;;;;;;;;;;;;;;1.47;71.66;101562.50;5053666;28;19913;-35
2022/04/02 01:02:19;;;;;;;;;;;;;;;1.45;70.42;101558.28;5053216;28;19916;-35
2022/04/02 01:04:45;;;;;;;;;;;;;;;1.47;71.49;101561.66;5053300;28;19913;-35
2022/04/02 01:07:10;;;;;;;;;;;;;;;1.39;70.67;101558.91;5053248;28;19913;-35
2022/04/02 01:09:35;;;;;;;;;;;;;;;1.41;71.52;101554.25;5053048;28;19919;-35
2022/04/02 01:12:00;;;;;;;;;;;;;;;1.39;70.87;101569.56;5053222;28;19967;-35
2022/04/02 01:14:25;;;;;;;;;;;;;;;1.41;71.67;101571.06;5053404;28;19913;-35
2022/04/02 01:16:51;;;;;;;;;;;;;;;1.40;70.90;101573.91;5053100;28;19924;-35
2022/04/02 01:19:16;;;;;;;;;;;;;;;1.40;71.31;101571.22;5052793;28;19913;-35
2022/04/02 01:21:48;;;;;;;;;;;;;;;1.40;71.60;101565.91;5053855;28;19916;-35
2022/04/02 01:24:13;;;;;;;;;;;;;;;1.36;70.99;101570.69;5052011;28;19959;-35
2022/04/02 01:26:38;;;;;;;;;;;;;;;1.37;71.10;101567.06;5053398;28;19955;-35
2022/04/02 01:29:04;;;;;;;;;;;;;;;1.36;70.05;101569.84;5053204;28;19935;-35
2022/04/02 01:31:30;;;;;;;;;;;;;;;1.35;70.75;101574.34;5053033;28;19920;-35
2022/04/02 01:33:55;;;;;;;;;;;;;;;1.40;70.97;101568.56;5052917;28;19916;-35
2022/04/02 01:36:21;;;;;;;;;;;;;;;1.43;70.97;101568.28;5053633;28;20395;-35
2022/04/02 01:38:46;;;;;;;;;;;;;;;1.35;69.79;101563.69;5053199;28;20324;-35
2022/04/02 01:41:12;;;;;;;;;;;;;;;1.35;71.18;101561.03;5052928;28;20297;-35
2022/04/02 01:43:38;;;;;;;;;;;;;;;1.31;70.26;101556.16;5051856;28;20269;-35
2022/04/02 01:46:04;;;;;;;;;;;;;;;1.31;70.76;101558.81;5052868;28;19919;-35
2022/04/02 01:48:30;;;;;;;;;;;;;;;1.29;70.59;101564.31;5052812;28;19920;-35
2022/04/02 01:50:55;;;;;;;;;;;;;;;1.28;70.45;101555.50;5053005;28;19913;-35
2022/04/02 01:53:21;;;;;;;;;;;;;;;1.26;70.67;101556.63;5054089;28;20348;-35
2022/04/02 01:55:47;;;;;;;;;;;;;;;1.27;70.33;101576.97;5056472;28;19913;-35
2022/04/02 01:58:12;;;;;;;;;;;;;;;1.21;71.04;101565.06;5056941;28;19913;-35
2022/04/02 02:00:38;;;;;;;;;;;;;;;1.17;70.83;101571.72;5056540;28;20033;-35
2022/04/02 02:03:04;;;;;;;;;;;;;;;1.20;71.30;101571.38;5056337;28;19935;-35
2022/04/02 02:05:29;;;;;;;;;;;;;;;1.24;71.15;101579.94;5056377;28;19912;-35
2022/04/02 02:07:54;;;;;;;;;;;;;;;1.25;71.21;101579.75;5056207;28;19912;-35
2022/04/02 02:10:20;;;;;;;;;;;;;;;1.23;71.43;101580.91;5057291;28;19917;-39
2022/04/02 02:12:46;;;;;;;;;;;;;;;1.16;70.24;101575.34;5056136;28;19912;-35
2022/04/02 02:15:16;;;;;;;;;;;;;;;1.20;70.94;101576.72;5056593;28;20266;-35
2022/04/02 02:17:42;;;;;;;;;;;;;;;1.10;69.65;101589.28;5057243;28;20233;-35
2022/04/02 02:20:08;;;;;;;;;;;;;;;1.15;70.69;101581.66;5056063;28;20242;-35
2022/04/02 02:22:34;;;;;;;;;;;;;;;1.16;70.84;101588.66;5056509;28;19919;-35
2022/04/02 02:24:59;;;;;;;;;;;;;;;1.12;70.04;101592.63;5056443;28;20403;-35
2022/04/02 02:27:25;;;;;;;;;;;;;;;1.13;70.22;101588.16;5055930;28;20373;-35
2022/04/02 02:29:52;;;;;;;;;;;;;;;1.01;69.81;101591.00;5055950;28;20386;-35
2022/04/02 02:32:17;;;;;;;;;;;;;;;1.01;70.21;101591.00;5055854;28;20016;-35
2022/04/02 02:37:27;;;;;;;;;;;;;;;1.03;70.73;101594.38;5056216;28;20016;-35
2022/04/02 02:39:53;;;;;;;;;;;;;;;1.04;70.51;101603.19;5056608;28;19916;-35
2022/04/02 02:42:18;;;;;;;;;;;;;;;1.02;70.94;101595.38;5056701;28;20242;-35
2022/04/02 02:44:43;;;;;;;;;;;;;;;1.02;70.66;101592.72;5055795;28;19912;-35
2022/04/02 02:47:08;;;;;;;;;;;;;;;1.05;71.17;101596.88;5055824;28;20338;-35
2022/04/02 02:49:34;;;;;;;;;;;;;;;1.04;70.81;101597.88;5056125;28;20339;-35
2022/04/02 02:51:59;;;;;;;;;;;;;;;1.07;70.87;101602.03;5055900;28;20024;-35
2022/04/02 02:54:25;;;;;;;;;;;;;;;1.04;70.70;101603.19;5055749;28;19979;-35
2022/04/02 02:56:50;;;;;;;;;;;;;;;1.02;70.21;101606.03;5055374;28;19916;-35
2022/04/02 02:59:15;;;;;;;;;;;;;;;0.94;70.05;101608.59;5055649;28;19996;-35
2022/04/02 03:01:41;;;;;;;;;;;;;;;0.97;70.52;101602.94;5055620;28;20356;-35
2022/04/02 03:04:06;;;;;;;;;;;;;;;0.97;71.04;101610.09;5055334;28;20355;-35
2022/04/02 03:06:31;;;;;;;;;;;;;;;0.95;71.35;101593.44;5055494;28;20018;-35
2022/04/02 03:08:56;;;;;;;;;;;;;;;0.97;71.37;101607.44;5055461;28;19917;-35
2022/04/02 03:11:22;;;;;;;;;;;;;;;0.93;71.51;101606.91;5055601;28;20012;-35
2022/04/02 03:13:47;;;;;;;;;;;;;;;0.92;71.30;101609.72;5055590;28;19999;-35
2022/04/02 03:16:12;;;;;;;;;;;;;;;0.92;71.58;101609.72;5054727;28;19986;-35
2022/04/02 03:18:38;;;;;;;;;;;;;;;0.93;72.19;101600.75;5056016;28;19912;-35
2022/04/02 03:21:03;;;;;;;;;;;;;;;0.91;71.80;101608.88;5055280;28;19999;-35
2022/04/02 03:23:28;;;;;;;;;;;;;;;0.91;72.21;101613.38;5055482;28;20011;-35
2022/04/02 03:25:53;;;;;;;;;;;;;;;0.92;72.30;101615.03;5054842;28;20308;-35
2022/04/02 03:28:19;;;;;;;;;;;;;;;0.94;72.21;101618.41;5054778;28;20335;-35
2022/04/02 03:30:44;;;;;;;;;;;;;;;0.96;72.34;101617.25;5055268;28;20293;-35
2022/04/02 03:33:10;;;;;;;;;;;;;;;0.98;72.37;101611.81;5055159;28;20359;-35
2022/04/02 03:35:35;;;;;;;;;;;;;;;0.98;72.71;101609.97;5054879;28;19915;-35
2022/04/02 03:38:01;;;;;;;;;;;;;;;0.99;72.26;101619.63;5054767;28;20015;-35
2022/04/02 03:40:27;;;;;;;;;;;;;;;1.01;72.64;101624.81;5054660;28;19963;-35
2022/04/02 03:42:53;;;;;;;;;;;;;;;1.01;72.50;101622.13;5055275;28;19948;-35
2022/04/02 03:45:19;;;;;;;;;;;;;;;1.02;72.33;101629.13;5054892;28;19917;-35
2022/04/02 03:47:44;;;;;;;;;;;;;;;0.98;72.70;101633.09;5054943;28;20011;-35
2022/04/02 03:50:10;;;;;;;;;;;;;;;0.97;72.66;101628.75;5055162;28;20343;-35
2022/04/02 03:52:35;;;;;;;;;;;;;;;0.93;73.10;101632.72;5054714;28;19912;-35
2022/04/02 03:55:01;;;;;;;;;;;;;;;0.88;72.89;101629.63;5054618;28;19913;-35
2022/04/02 03:57:26;;;;;;;;;;;;;;;0.85;72.84;101633.44;5054055;28;19935;-35
2022/04/02 03:59:51;;;;;;;;;;;;;;;0.86;73.56;101632.44;5054834;28;19920;-35
2022/04/02 04:02:16;;;;;;;;;;;;;;;0.88;73.10;101634.97;5054347;28;20309;-35
2022/04/02 04:04:42;;;;;;;;;;;;;;;0.92;73.16;101639.00;5054621;28;19974;-35
2022/04/02 04:07:07;;;;;;;;;;;;;;;0.87;73.52;101635.94;5054783;28;19924;-36
2022/04/02 04:09:33;;;;;;;;;;;;;;;0.86;73.67;101639.59;5054970;28;20206;-35
2022/04/02 04:11:58;;;;;;;;;;;;;;;0.80;73.16;101638.38;5054671;28;19912;-35
2022/04/02 04:14:24;;;;;;;;;;;;;;;0.81;73.41;101636.56;5054338;28;19912;-35
2022/04/02 04:16:49;;;;;;;;;;;;;;;0.74;73.12;101642.47;5053419;28;19982;-35
2022/04/02 04:19:14;;;;;;;;;;;;;;;0.73;73.05;101642.59;5054463;28;20357;-35
2022/04/02 04:21:40;;;;;;;;;;;;;;;0.64;72.49;101648.84;5054251;28;20004;-35
2022/04/02 04:24:06;;;;;;;;;;;;;;;0.66;73.44;101645.03;5053915;28;20225;-35
2022/04/02 04:26:32;;;;;;;;;;;;;;;0.63;73.10;101639.16;5054206;28;19920;-35
2022/04/02 04:28:57;;;;;;;;;;;;;;;0.60;72.77;101642.97;5054084;28;19943;-35
2022/04/02 04:31:22;;;;;;;;;;;;;;;0.64;73.16;101644.34;5054629;28;20286;-35
2022/04/02 04:33:48;;;;;;;;;;;;;;;0.65;73.50;101647.84;5053776;28;19939;-35
2022/04/02 04:36:18;;;;;;;;;;;;;;;0.62;72.73;101648.97;5054168;28;19959;-35
2022/04/02 04:38:44;;;;;;;;;;;;;;;0.59;72.38;101649.28;5053357;28;19920;-35
2022/04/02 04:41:09;;;;;;;;;;;;;;;0.58;71.97;101652.88;5054465;28;19912;-35
2022/04/02 04:43:35;;;;;;;;;;;;;;;0.58;71.88;101647.56;5053676;28;19916;-35
2022/04/02 04:46:01;;;;;;;;;;;;;;;0.60;71.34;101661.59;5053981;28;20353;-35
2022/04/02 04:48:26;;;;;;;;;;;;;;;0.62;71.38;101659.59;5053609;28;19912;-35
2022/04/02 04:50:52;;;;;;;;;;;;;;;0.65;71.28;101664.66;5053849;28;19927;-35
2022/04/02 04:53:17;;;;;;;;;;;;;;;0.63;71.06;101671.09;5053437;28;19913;-35
2022/04/02 04:55:43;;;;;;;;;;;;;;;0.61;71.59;101665.09;5053631;28;19912;-35
2022/04/02 04:58:08;;;;;;;;;;;;;;;0.67;71.85;101675.97;5053772;28;19916;-35
2022/04/02 05:00:33;;;;;;;;;;;;;;;0.64;71.87;101676.28;5053865;28;19927;-35
2022/04/02 05:02:58;;;;;;;;;;;;;;;0.61;71.85;101673.91;5053060;28;20011;-35
2022/04/02 05:05:24;;;;;;;;;;;;;;;0.66;72.45;101682.28;5053438;28;19917;-35
2022/04/02 05:07:50;;;;;;;;;;;;;;;0.69;72.29;101678.50;5053130;28;19930;-35
2022/04/02 05:10:15;;;;;;;;;;;;;;;0.66;71.41;101686.78;5053253;28;20011;-35
2022/04/02 05:12:40;;;;;;;;;;;;;;;0.65;71.65;101696.59;5053250;28;19919;-35
2022/04/02 05:15:09;;;;;;;;;;;;;;;0.66;72.04;101692.09;5053660;28;19916;-35
2022/04/02 05:17:37;;;;;;;;;;;;;;;0.58;71.77;101697.31;5052715;28;20434;-34
2022/04/02 05:20:03;;;;;;;;;;;;;;;0.59;72.17;101704.34;5052755;28;19924;-34
2022/04/02 05:22:28;;;;;;;;;;;;;;;0.59;71.97;101694.53;5052622;28;19916;-34
2022/04/02 05:24:54;;;;;;;;;;;;;;;0.61;72.28;101703.19;5053219;28;19913;-34
2022/04/02 05:27:19;;;;;;;;;;;;;;;0.65;73.06;101709.91;5052932;28;19917;-35
2022/04/02 05:29:44;;;;;;;;;;;;;;;0.69;72.75;101711.28;5053737;28;19913;-34
2022/04/02 05:32:10;;;;;;;;;;;;;;;0.70;72.47;101718.28;5052598;28;19920;-34
2022/04/02 05:34:35;;;;;;;;;;;;;;;0.69;72.72;101710.47;5053171;28;19913;-34
2022/04/02 05:37:01;;;;;;;;;;;;;;;0.69;72.52;101721.94;5053154;28;20016;-34
2022/04/02 05:39:26;;;;;;;;;;;;;;;0.67;72.63;101718.56;5052853;28;19916;-35
2022/04/02 05:41:51;;;;;;;;;;;;;;;0.72;73.00;101724.28;5053767;28;20015;-35
2022/04/02 05:44:17;;;;;;;;;;;;;;;0.75;72.70;101733.81;5052879;28;19917;-35
2022/04/02 05:46:42;;;;;;;;;;;;;;;0.76;73.08;101741.66;5053434;28;19913;-35
2022/04/02 05:49:07;;;;;;;;;;;;;;;0.80;73.34;101736.91;5053273;28;19952;-35
2022/04/02 05:51:32;;;;;;;;;;;;;;;0.83;73.21;101747.25;5053037;28;20333;-35
2022/04/02 05:53:59;;;;;;;;;;;;;;;0.83;72.70;101739.28;5051500;28;19913;-35
2022/04/02 05:56:24;;;;;;;;;;;;;;;0.90;73.02;101750.19;5053393;28;20367;-34
2022/04/02 05:58:51;;;;;;;;;;;;;;;0.88;72.52;101746.81;5053204;28;20009;-35
2022/04/02 06:01:16;;;;;;;;;;;;;;;0.88;72.67;101746.81;5052829;28;20027;-35
2022/04/02 06:03:42;;;;;;;;;;;;;;;0.94;72.84;101744.41;5052711;28;20398;-35
2022/04/02 06:06:07;;;;;;;;;;;;;;;0.95;72.80;101753.25;5052972;28;19917;-35
2022/04/02 06:08:33;;;;;;;;;;;;;;;0.97;72.84;101757.41;5052855;28;20000;-35
2022/04/02 06:10:58;;;;;;;;;;;;;;;1.01;72.98;101755.31;5052586;28;19943;-34
2022/04/02 06:13:23;;;;;;;;;;;;;;;1.04;73.17;101763.03;5052936;28;19912;-35
2022/04/02 06:15:49;;;;;;;;;;;;;;;1.03;72.17;101761.34;5052766;28;19974;-35
2022/04/02 06:18:18;;;;;;;;;;;;;;;1.00;72.80;101770.47;5052350;28;19921;-35
2022/04/02 06:20:43;;;;;;;;;;;;;;;1.06;73.07;101774.34;5053131;28;20352;-35
2022/04/02 06:23:08;;;;;;;;;;;;;;;1.09;72.61;101770.56;5053091;28;19959;-35
2022/04/02 06:25:33;;;;;;;;;;;;;;;1.12;72.58;101771.09;5052884;28;19917;-35
2022/04/02 06:27:59;;;;;;;;;;;;;;;1.17;73.01;101774.19;5052536;28;19928;-35
2022/04/02 06:30:24;;;;;;;;;;;;;;;1.16;72.25;101783.16;5068215;28;19920;-35
2022/04/02 06:32:49;;;;;;;;;;;;;;;1.19;72.88;101788.19;5052762;28;19920;-35
2022/04/02 06:35:14;;;;;;;;;;;;;;;1.23;73.04;101776.25;5052707;28;19919;-35
2022/04/02 06:37:40;;;;;;;;;;;;;;;1.29;72.48;101783.66;5052358;28;19920;-35
2022/04/02 06:40:07;;;;;;;;;;;;;;;1.23;71.08;101794.06;5055476;28;19919;-35
2022/04/02 06:42:32;;;;;;;;;;;;;;;1.32;72.06;101789.66;5056274;28;20394;-35
2022/04/02 06:44:57;;;;;;;;;;;;;;;1.39;72.73;101798.78;5056012;28;19952;-35
2022/04/02 06:47:26;;;;;;;;;;;;;;;1.42;72.41;101798.50;5055932;28;19913;-35
2022/04/02 06:49:52;;;;;;;;;;;;;;;1.48;72.50;101804.06;5055996;28;19913;-35
2022/04/02 06:52:17;;;;;;;;;;;;;;;1.51;71.68;101808.22;5056161;28;19930;-35
2022/04/02 06:54:42;;;;;;;;;;;;;;;1.55;72.35;101810.47;5055774;28;19920;-35
2022/04/02 06:57:08;;;;;;;;;;;;;;;1.60;71.27;101806.50;5055865;28;19924;-35
2022/04/02 06:59:33;;;;;;;;;;;;;;;1.63;71.56;101811.56;5055866;28;19913;-35
2022/04/02 07:01:58;;;;;;;;;;;;;;;1.59;70.91;101818.16;5055987;28;19919;-35
2022/04/02 07:04:23;;;;;;;;;;;;;;;1.63;71.61;101822.22;5056122;28;19916;-35
2022/04/02 07:06:49;;;;;;;;;;;;;;;1.64;71.15;101816.72;5055531;28;20365;-35
2022/04/02 07:09:17;;;;;;;;;;;;;;;1.72;71.51;101824.84;5055943;28;19913;-35
2022/04/02 07:11:42;;;;;;;;;;;;;;;1.77;71.32;101824.38;5055972;28;20253;-35
2022/04/02 07:14:09;;;;;;;;;;;;;;;1.96;76.60;101823.44;5055472;28;19919;-35
2022/04/02 07:16:34;;;;;;;;;;;;;;;2.10;70.82;101830.91;5055187;28;19919;-35
2022/04/02 07:19:00;;;;;;;;;;;;;;;2.15;71.66;101833.09;5055432;28;20007;-35
2022/04/02 07:21:26;;;;;;;;;;;;;;;2.12;70.67;101836.94;5056313;28;20303;-35
2022/04/02 07:23:52;;;;;;;;;;;;;;;2.10;70.76;101825.59;5055045;28;20007;-35
2022/04/02 07:26:18;;;;;;;;;;;;;;;2.19;70.56;101835.31;5055699;28;20065;-35
2022/04/02 07:28:44;;;;;;;;;;;;;;;2.22;69.73;101851.03;5055212;28;20292;-35
2022/04/02 07:31:09;;;;;;;;;;;;;;;2.18;69.15;101844.31;5056054;28;19913;-35
2022/04/02 07:33:34;;;;;;;;;;;;;;;2.31;70.41;101855.47;5055236;28;19913;-36
2022/04/02 07:36:10;;;;;;;;;;;;;;;2.35;69.43;101852.50;5055549;28;19977;-35
2022/04/02 07:38:40;;;;;;;;;;;;;;;2.46;69.87;101855.78;5054780;28;20391;-35
2022/04/02 07:41:14;;;;;;;;;;;;;;;2.50;69.32;101859.81;5055245;28;19935;-35
2022/04/02 07:43:42;;;;;;;;;;;;;;;2.53;68.85;101864.84;5055044;28;19912;-35
2022/04/02 07:46:12;;;;;;;;;;;;;;;2.60;68.75;101874.91;5055408;28;19992;-35
2022/04/02 07:48:39;;;;;;;;;;;;;;;2.59;68.01;101866.06;5054887;28;20014;-36
2022/04/02 07:51:09;;;;;;;;;;;;;;;2.57;68.47;101862.69;5053739;28;20246;-35
2022/04/02 07:53:35;;;;;;;;;;;;;;;2.67;69.61;101866.13;5054503;28;19912;-36
2022/04/02 07:56:03;;;;;;;;;;;;;;;2.73;68.58;101876.22;5054669;28;19920;-36
2022/04/02 07:58:32;;;;;;;;;;;;;;;2.82;68.97;101877.94;5054898;28;19913;-35
2022/04/02 08:01:00;;;;;;;;;;;;;;;2.73;67.74;101870.00;5054644;28;20003;-35
2022/04/02 08:03:26;;;;;;;;;;;;;;;2.82;68.33;101869.91;5054272;28;20004;-35
2022/04/02 08:05:55;;;;;;;;;;;;;;;2.73;67.41;101878.88;5054400;28;19913;-35
2022/04/02 08:08:20;;;;;;;;;;;;;;;2.72;68.01;101879.84;5052543;28;19924;-35
2022/04/02 08:10:46;;;;;;;;;;;;;;;2.79;68.68;101875.59;5053990;28;19916;-35
2022/04/02 08:13:15;;;;;;;;;;;;;;;2.92;68.39;101874.34;5054726;28;19913;-35
2022/04/02 08:15:40;;;;;;;;;;;;;;;2.92;68.44;101883.19;5052849;28;19963;-35
2022/04/02 08:18:06;;;;;;;;;;;;;;;2.92;68.68;101869.81;5053868;28;19912;-35
2022/04/02 08:20:32;;;;;;;;;;;;;;;2.95;68.64;101882.88;5054997;28;20003;-35
2022/04/02 08:22:57;;;;;;;;;;;;;;;3.02;68.39;101880.41;5054472;28;20121;-35
2022/04/02 08:25:22;;;;;;;;;;;;;;;3.10;68.89;101878.66;5054002;28;20374;-34
2022/04/02 08:27:47;;;;;;;;;;;;;;;3.26;69.53;101883.25;5054015;28;19919;-34
2022/04/02 08:30:18;;;;;;;;;;;;;;;3.29;68.07;101882.94;5054240;28;20269;-35
2022/04/02 08:33:02;;;;;;;;;;;;;;;3.24;68.47;101889.78;5053640;28;20365;-35
2022/04/02 08:35:47;;;;;;;;;;;;;;;3.39;68.43;101887.34;5054123;28;19924;-35
2022/04/02 08:38:40;;;;;;;;;;;;;;;3.58;68.38;101887.13;5051524;28;19913;-35
2022/04/02 08:41:05;;;;;;;;;;;;;;;3.59;67.19;101884.28;5047981;28;19950;-35
2022/04/02 08:43:31;;;;;;;;;;;;;;;3.58;68.04;101892.47;5051464;28;20389;-35
2022/04/02 08:46:08;;;;;;;;;;;;;;;3.60;67.83;101898.47;5051834;28;20329;-35
2022/04/02 08:48:34;;;;;;;;;;;;;;;3.61;68.26;101895.69;5051172;28;20004;-35
2022/04/02 08:51:12;;;;;;;;;;;;;;;3.51;66.98;101902.09;5051284;28;20381;-35
2022/04/02 08:53:51;;;;;;;;;;;;;;;3.55;67.41;101904.31;5051637;28;19923;-35
2022/04/02 08:56:28;;;;;;;;;;;;;;;3.40;66.20;101907.72;5051578;28;20086;-35
2022/04/02 08:59:00;;;;;;;;;;;;;;;3.25;66.97;101912.81;5051732;28;19928;-35
2022/04/02 09:01:27;;;;;;;;;;;;;;;3.14;67.47;101916.59;5051093;28;19912;-35
2022/04/02 09:03:52;;;;;;;;;;;;;;;3.10;67.74;101920.56;5051291;28;19994;-35
2022/04/02 09:06:44;;;;;;;;;;;;;;;3.20;68.46;101923.97;5051111;28;19956;-35
2022/04/02 09:09:30;;;;;;;;;;;;;;;3.38;69.66;101925.78;5051475;28;19913;-34
2022/04/02 09:12:05;;;;;;;;;;;;;;;3.54;68.64;101929.38;4972436;28;20333;-35
2022/04/02 09:14:49;;;;;;;;;;;;;;;3.63;67.77;101935.63;4975933;28;19987;-35
2022/04/02 09:17:33;;;;;;;;;;;;;;;3.50;67.55;101932.53;4992430;28;19921;-35
2022/04/02 09:20:04;;;;;;;;;;;;;;;3.66;67.91;101932.66;4992247;28;20411;-35
2022/04/02 09:22:32;;;;;;;;;;;;;;;3.96;68.12;101935.78;4992105;28;20004;-34
2022/04/02 09:24:58;;;;;;;;;;;;;;;4.06;66.75;101931.97;4992074;28;20008;-34
2022/04/02 09:27:26;;;;;;;;;;;;;;;4.16;66.44;101929.19;4992165;28;20017;-35
2022/04/02 09:29:57;;;;;;;;;;;;;;;4.24;65.60;101939.06;4992104;28;20279;-35
2022/04/02 09:32:31;;;;;;;;;;;;;;;4.43;64.11;101940.63;4991553;28;19914;-35
2022/04/02 09:35:05;;;;;;;;;;;;;;;4.38;63.52;101939.25;4991410;28;19917;-35
2022/04/02 09:37:33;;;;;;;;;;;;;;;4.51;62.46;101946.00;4991389;28;19921;-35
2022/04/02 09:40:06;;;;;;;;;;;;;;;4.54;62.68;101940.28;4992016;28;20075;-34
2022/04/02 09:42:41;;;;;;;;;;;;;;;4.72;63.55;101932.97;4992009;28;19996;-35
2022/04/02 09:45:09;;;;;;;;;;;;;;;5.05;64.10;101935.66;4975568;28;20336;-35
2022/04/02 09:47:34;;;;;;;;;;;;;;;5.32;64.20;101932.63;4991382;28;19917;-35
2022/04/02 09:50:08;;;;;;;;;;;;;;;5.59;62.32;101936.75;5047498;28;19926;-35
2022/04/02 09:52:36;;;;;;;;;;;;;;;5.68;62.12;101933.06;5052665;28;19920;-35
2022/04/02 09:55:09;;;;;;;;;;;;;;;5.50;61.84;101932.41;5052744;28;19913;-35
2022/04/02 09:57:54;;;;;;;;;;;;;;;5.28;62.34;101930.47;5052989;28;19913;-35
2022/04/02 10:00:20;;;;;;;;;;;;;;;5.02;58.95;101930.63;5052517;28;19954;-34
2022/04/02 10:03:01;;;;;;;;;;;;;;;4.46;58.31;101942.97;5052657;28;20273;-34
2022/04/02 10:05:56;;;;;;;;;;;;;;;4.43;60.01;101938.78;5053429;28;19959;-34
2022/04/02 10:08:34;;;;;;;;;;;;;;;4.32;60.82;101939.91;5052900;28;19912;-35
2022/04/02 10:11:00;;;;;;;;;;;;;;;4.16;60.84;101945.25;5053168;28;19919;-34
2022/04/02 10:13:27;;;;;;;;;;;;;;;4.25;62.24;101946.13;5052559;28;20372;-35
2022/04/02 10:15:55;;;;;;;;;;;;;;;4.26;61.72;101937.06;5057107;28;19964;-35
2022/04/02 10:18:24;;;;;;;;;;;;;;;4.14;60.07;101939.19;5056143;28;19938;-35
2022/04/02 10:20:52;;;;;;;;;;;;;;;4.14;61.30;101942.69;5056451;28;19955;-35
2022/04/02 10:23:20;;;;;;;;;;;;;;;4.22;62.04;101941.91;5056373;28;19917;-36
2022/04/02 10:26:08;;;;;;;;;;;;;;;4.12;61.46;101941.19;5056505;28;19919;-35
2022/04/02 10:28:43;;;;;;;;;;;;;;;4.06;61.32;101936.50;5054838;28;19920;-35
2022/04/02 10:31:09;;;;;;;;;;;;;;;4.15;62.14;101932.84;5054542;28;19920;-35
2022/04/02 10:33:36;;;;;;;;;;;;;;;4.26;63.22;101926.34;5054407;28;19912;-36
2022/04/02 10:36:03;;;;;;;;;;;;;;;4.39;63.16;101922.22;5054088;28;19944;-36
2022/04/02 10:38:32;;;;;;;;;;;;;;;4.53;63.52;101922.56;5053752;28;19912;-34
2022/04/02 10:40:57;;;;;;;;;;;;;;;4.50;62.78;101929.09;5053811;28;19920;-35
2022/04/02 10:43:24;;;;;;;;;;;;;;;4.54;63.21;101922.41;5053768;28;19913;-35
2022/04/02 10:45:49;;;;;;;;;;;;;;;4.48;62.80;101920.38;5054025;28;20011;-35
2022/04/02 10:48:19;;;;;;;;;;;;;;;4.38;62.06;101933.06;5053679;28;20416;-35
2022/04/02 10:50:44;;;;;;;;;;;;;;;4.35;63.69;101928.91;5054367;28;19913;-34
2022/04/02 10:53:11;;;;;;;;;;;;;;;4.41;64.07;101927.41;5054088;28;19919;-34
2022/04/02 10:55:45;;;;;;;;;;;;;;;4.38;62.85;101927.72;5053481;28;20397;-35
2022/04/02 10:58:11;;;;;;;;;;;;;;;4.37;62.51;101924.19;5053371;28;20262;-35
2022/04/02 11:00:38;;;;;;;;;;;;;;;4.45;61.02;101923.41;5053664;28;19917;-34
2022/04/02 11:03:04;;;;;;;;;;;;;;;4.49;61.55;101930.09;5053645;28;19913;-34
2022/04/02 11:05:36;;;;;;;;;;;;;;;4.60;62.33;101920.91;5043647;28;19912;-34
2022/04/02 11:08:05;;;;;;;;;;;;;;;4.72;62.18;101924.91;5055395;28;20011;-35
2022/04/02 11:10:33;;;;;;;;;;;;;;;4.81;59.58;101918.56;5056126;28;20007;-34
2022/04/02 11:13:00;;;;;;;;;;;;;;;4.90;59.53;101919.41;5055497;28;20411;-35
2022/04/02 11:15:25;;;;;;;;;;;;;;;5.05;59.50;101925.78;5056272;28;19913;-35
2022/04/02 11:17:53;;;;;;;;;;;;;;;5.27;61.25;101912.66;5055446;28;20250;-34
2022/04/02 11:20:22;;;;;;;;;;;;;;;5.27;52.91;101918.91;5056349;28;19916;-35
2022/04/02 11:23:01;;;;;;;;;;;;;;;5.34;53.45;101916.38;5055870;28;19917;-35
2022/04/02 11:25:31;;;;;;;;;;;;;;;5.37;54.85;101910.66;5055513;28;19969;-35
2022/04/02 11:28:00;;;;;;;;;;;;;;;5.19;52.61;101918.06;5055370;28;20007;-35
2022/04/02 11:30:29;;;;;;;;;;;;;;;5.08;51.64;101913.88;5055158;28;20361;-34
2022/04/02 11:33:02;;;;;;;;;;;;;;;5.11;51.10;101916.22;5054775;28;20372;-34
2022/04/02 11:35:29;;;;;;;;;;;;;;;5.19;52.86;101918.06;5055339;28;19916;-35
2022/04/02 11:37:57;;;;;;;;;;;;;;;5.31;52.65;101912.16;5054652;28;20023;-35
2022/04/02 11:40:26;;;;;;;;;;;;;;;5.39;51.63;101930.09;5055562;28;19939;-35
2022/04/02 11:42:52;;;;;;;;;;;;;;;5.35;50.34;101928.75;5055779;28;20361;-34
2022/04/02 11:45:19;;;;;;;;;;;;;;;5.36;48.50;101925.91;5055133;28;20002;-35
2022/04/02 11:47:49;;;;;;;;;;;;;;;5.64;51.14;101914.78;5054847;28;19912;-35
2022/04/02 11:50:22;;;;;;;;;;;;;;;5.85;48.19;101923.09;5055185;28;20347;-35
2022/04/02 11:52:52;;;;;;;;;;;;;;;5.83;49.37;101917.06;5055577;28;20295;-35
2022/04/02 11:55:17;;;;;;;;;;;;;;;5.79;47.70;101928.31;5055081;28;19917;-35
2022/04/02 11:58:02;;;;;;;;;;;;;;;5.55;48.33;101929.22;5054834;28;19913;-35
2022/04/02 12:00:29;;;;;;;;;;;;;;;5.66;48.77;101927.03;5054445;28;19912;-35
2022/04/02 12:02:54;;;;;;;;;;;;;;;5.89;50.12;101929.78;5054670;28;19913;-36
2022/04/02 12:05:23;;;;;;;;;;;;;;;6.16;48.05;101936.59;5055193;28;20268;-36
2022/04/02 12:07:51;;;;;;;;;;;;;;;6.10;47.30;101931.94;5054740;28;19913;-36
2022/04/02 12:10:24;;;;;;;;;;;;;;;6.12;48.75;101924.53;5054253;28;19920;-36
2022/04/02 12:12:50;;;;;;;;;;;;;;;6.39;48.95;101920.53;5054437;28;20377;-36
2022/04/02 12:15:16;;;;;;;;;;;;;;;6.54;49.07;101919.75;5054437;28;19916;-36
2022/04/02 12:17:50;;;;;;;;;;;;;;;6.35;47.72;101923.75;5053998;28;20008;-36
2022/04/02 12:20:25;;;;;;;;;;;;;;;6.64;48.01;101917.69;5054637;28;19916;-36
2022/04/02 12:23:04;;;;;;;;;;;;;;;6.91;45.99;101914.44;5055099;28;19940;-36
2022/04/02 12:25:29;;;;;;;;;;;;;;;7.32;46.65;101918.59;5053982;28;19939;-35
2022/04/02 12:27:56;;;;;;;;;;;;;;;7.65;46.25;101911.03;5054174;28;19917;-35
2022/04/02 12:30:23;;;;;;;;;;;;;;;7.86;44.93;101913.81;5054143;28;19912;-35
2022/04/02 12:32:48;;;;;;;;;;;;;;;8.03;43.47;101919.00;5054031;28;19912;-35
2022/04/02 12:35:21;;;;;;;;;;;;;;;8.00;42.40;101912.97;5054471;28;19913;-35
2022/04/02 12:37:51;;;;;;;;;;;;;;;8.12;43.22;101912.47;5053561;28;19917;-35
2022/04/02 12:40:18;;;;;;;;;;;;;;;8.29;41.03;101913.06;5053929;28;19913;-35
2022/04/02 12:42:44;;;;;;;;;;;;;;;8.05;42.08;101916.94;5054427;28;19913;-35
2022/04/02 12:45:15;;;;;;;;;;;;;;;7.66;42.88;101920.75;5054206;28;19919;-35
2022/04/02 12:47:41;;;;;;;;;;;;;;;6.96;43.31;101933.53;5054247;28;20355;-35
2022/04/02 12:50:10;;;;;;;;;;;;;;;7.00;46.45;101934.03;5054087;28;19956;-35
2022/04/02 12:52:43;;;;;;;;;;;;;;;6.92;44.70;101942.16;5053701;28;20011;-35
2022/04/02 12:55:15;;;;;;;;;;;;;;;6.84;46.68;101935.00;5053987;28;19913;-35